Houston, TX

9:19 AM CDT on September 30, 2014 (GMT -0500)
Briargrove Park | Change Station
CLOSE
Current Station
Personal Weather Station
Location: Houston, TX
Elevation: 80 ft
Nearby Weather Stations

Elev 80 ft 29.74 °N, 95.55 °W | Updated 39 seconds ago

Partly Cloudy
Partly Cloudy
79.9 °F
Feels Like 84 °F
N
0.0
Wind Variable Wind from East
Gusts 0.0 mph

Today
High -- | Low -- °F
--% Chance of Precip.
Yesterday
High -- | Low -- °F
Precip. -- in
7:14 AM 7:08 PM
Waxing Crescent, 37% visible
Pressure 29.85 in
Visibility 8.0 miles
Clouds Clear
Heat Index 84 °F
Dew Point 72 °F
Humidity 78%
Rainfall 0.00 in
Snow Depth Not available.
UV 1 out of 12
Pollen 7.80 out of 12
PM2.5 Moderate
Flu Activity Not available.
METAR KMCJ 301355Z AUTO 00000KT 8SM CLR 25/22 A2985 RMK AO1

More Conditions Fewer Conditions

Pressure 29.85 in
Visibility 8.0 miles
Clouds Clear
Heat Index 84 °F
Dew Point 72 °F
Humidity 78%
Rainfall 0.00 in
Snow Depth Not available.
UV 1 out of 12
Pollen 7.80 out of 12
PM2.5 Moderate
Flu Activity Not available.
METAR KMCJ 301355Z AUTO 00000KT 8SM CLR 25/22 A2985 RMK AO1

More Conditions Fewer Conditions

10-Day Weather Forecast

Almanac

Astronomy

Sep. 30, 2014 Rise Set
Actual Time 7:14 AM CDT 7:08 PM CDT
Civil Twilight 6:51 AM CDT 7:32 PM CDT
Nautical Twilight 6:23 AM CDT 8:00 PM CDT
Astronomical Twilight 5:55 AM CDT 8:27 PM CDT
Moon 1:04 PM CDT 11:59 PM CDT
Length of Visible Light 12h 41m
Length of Day
11h 53m
Tomorrow will be 1m 46s shorter.
Waxing Crescent, 37% of the Moon is Illuminated
Today
Waxing Crescent
Oct 1
First Quarter
Oct 8
Full
Oct 15
Last Quarter
Oct 23
New

Today's Extremes

State Highs State Lows

Community

WunderPhotos

Upload Photos

1,757,643 photos uploaded!

Nearby

Air Quality

  Air Quality AQ Index Pollutant
Yesterday Good
PM2.5
Yesterday Good
OZONE
Current Moderate
PM2.5
Tuesday Moderate
OZONE
Tuesday Good
PM10
Wednesday Good
OZONE
Wednesday Good
PM10
Thursday Good
OZONE
Thursday Good
PM10
Friday Good
OZONE
Friday Good
PM10

Snow Depth

Station Depth Elevation
No new snow has been reported.

Earthquake Activity

City Distance Mag. Time & Date
No recent earthquake activity has been reported nearby.
Minimum magnitude displayed is 2.5.

Coastal Water Temperatures

Place Temperature
Eagle Point, TX 80.1 °F
USCG Freeport, TX 80.1 °F
Galveston Pier TX 80.1 °F
Galveston Bay (North Jetty), TX 80.1 °F
Rollover Pass, TX 78.1 °F

Nearby Weather Stations